createdAt,value
2023-02-13T00:00:51.596Z,100.00
2023-02-13T00:03:40.137Z,100.00
2023-02-13T00:06:30.238Z,100.00
2023-02-13T00:09:18.765Z,100.00
2023-02-13T00:12:08.541Z,100.00
2023-02-13T00:14:57.047Z,100.00
2023-02-13T00:17:45.550Z,100.00
2023-02-13T00:20:34.107Z,100.00
2023-02-13T00:23:24.202Z,100.00
2023-02-13T00:26:14.024Z,100.00
2023-02-13T00:29:02.495Z,100.00
2023-02-13T00:31:51.058Z,100.00
2023-02-13T00:34:39.600Z,100.00
2023-02-13T00:37:28.057Z,100.00
2023-02-13T00:40:17.882Z,100.00
2023-02-13T00:43:06.315Z,100.00
2023-02-13T00:45:54.832Z,100.00
2023-02-13T00:48:43.422Z,100.00
2023-02-13T00:51:31.938Z,100.00
2023-02-13T00:54:20.490Z,100.00
2023-02-13T00:57:10.297Z,100.00
2023-02-13T00:59:58.815Z,100.00
2023-02-13T01:02:47.777Z,100.00
2023-02-13T01:05:36.870Z,100.00
2023-02-13T01:08:28.227Z,100.00
2023-02-13T01:11:16.776Z,100.00
2023-02-13T01:14:06.886Z,100.00
2023-02-13T01:16:56.551Z,100.00
2023-02-13T01:19:45.094Z,100.00
2023-02-13T01:22:33.716Z,100.00
2023-02-13T01:25:23.087Z,100.00
2023-02-13T01:28:11.602Z,100.00
2023-02-13T01:31:02.291Z,100.00
2023-02-13T01:33:51.224Z,100.00
2023-02-13T01:36:40.118Z,100.00
2023-02-13T01:39:28.782Z,100.00
2023-02-13T01:42:18.562Z,100.00
2023-02-13T01:45:14.751Z,100.00
2023-02-13T01:48:06.979Z,100.00
2023-02-13T01:50:57.651Z,100.00
2023-02-13T01:53:49.214Z,100.00
2023-02-13T01:56:39.956Z,100.00
2023-02-13T01:59:32.213Z,100.00
2023-02-13T02:02:21.136Z,100.00
2023-02-13T02:05:11.534Z,100.00
2023-02-13T02:08:01.462Z,100.00
2023-02-13T02:10:49.973Z,100.00
2023-02-13T02:13:38.766Z,100.00
2023-02-13T02:16:27.513Z,100.00
2023-02-13T02:19:22.962Z,100.00
2023-02-13T02:22:26.779Z,100.00
2023-02-13T02:25:31.771Z,100.00
2023-02-13T02:28:41.193Z,100.00
2023-02-13T02:31:58.953Z,100.00
2023-02-13T02:34:54.352Z,100.00
2023-02-13T02:38:00.624Z,100.00
2023-02-13T02:41:01.505Z,100.00
2023-02-13T02:43:56.344Z,100.00
2023-02-13T02:47:15.842Z,100.00
2023-02-13T02:50:17.655Z,100.00
2023-02-13T02:53:11.070Z,100.00
2023-02-13T02:56:05.800Z,100.00
2023-02-13T02:59:15.136Z,100.00
2023-02-13T03:02:23.049Z,100.00
2023-02-13T03:05:37.673Z,100.00
2023-02-13T03:08:40.202Z,100.00
2023-02-13T03:11:46.516Z,100.00
2023-02-13T03:14:35.188Z,100.00
2023-02-13T03:17:43.010Z,100.00
2023-02-13T03:20:55.736Z,100.00
2023-02-13T03:23:52.187Z,100.00
2023-02-13T03:26:50.470Z,100.00
2023-02-13T03:30:02.798Z,100.00
2023-02-13T03:32:59.400Z,100.00
2023-02-13T03:36:08.746Z,100.00
2023-02-13T03:39:00.261Z,100.00
2023-02-13T03:41:51.778Z,100.00
2023-02-13T03:44:44.457Z,100.00
2023-02-13T03:47:33.006Z,100.00
2023-02-13T03:50:21.987Z,100.00
2023-02-13T03:53:12.416Z,100.00
2023-02-13T03:56:19.495Z,100.00
2023-02-13T03:59:17.007Z,100.00
2023-02-13T04:02:09.612Z,100.00
2023-02-13T04:05:01.456Z,100.00
2023-02-13T04:07:51.333Z,100.00
2023-02-13T04:10:46.624Z,100.00
2023-02-13T04:13:36.489Z,100.00
2023-02-13T04:16:29.819Z,100.00
2023-02-13T04:19:18.474Z,100.00
2023-02-13T04:22:06.942Z,100.00
2023-02-13T04:24:56.864Z,100.00
2023-02-13T04:27:45.411Z,100.00
2023-02-13T04:30:34.377Z,100.00
2023-02-13T04:33:22.878Z,100.00
2023-02-13T04:36:11.397Z,100.00
2023-02-13T04:38:59.931Z,100.00
2023-02-13T04:41:49.723Z,100.00
2023-02-13T04:44:38.201Z,100.00
2023-02-13T04:47:26.843Z,100.00
2023-02-13T04:50:15.346Z,100.00
2023-02-13T04:53:03.814Z,100.00
2023-02-13T04:55:53.136Z,100.00
2023-02-13T04:58:42.955Z,100.00
2023-02-13T05:01:31.642Z,100.00
2023-02-13T05:04:20.369Z,100.00
2023-02-13T05:07:08.883Z,100.00
2023-02-13T05:09:57.322Z,100.00
2023-02-13T05:12:45.837Z,100.00
2023-02-13T05:15:35.870Z,100.00
2023-02-13T05:18:24.351Z,100.00
2023-02-13T05:21:30.196Z,100.00
2023-02-13T05:24:20.517Z,100.00
2023-02-13T05:27:09.231Z,100.00
2023-02-13T05:29:57.710Z,100.00
2023-02-13T05:32:47.549Z,100.00
2023-02-13T05:35:36.041Z,100.00
2023-02-13T05:38:24.530Z,100.00
2023-02-13T05:41:13.514Z,100.00
2023-02-13T05:44:02.037Z,100.00
2023-02-13T05:46:50.537Z,100.00
2023-02-13T05:49:40.373Z,100.00
2023-02-13T05:52:28.933Z,100.00
2023-02-13T05:55:17.586Z,100.00
2023-02-13T05:58:06.067Z,100.00
2023-02-13T06:00:57.034Z,100.00
2023-02-13T06:03:45.780Z,100.00
2023-02-13T06:06:35.746Z,100.00
2023-02-13T06:09:24.303Z,100.00
2023-02-13T06:12:12.809Z,100.00
2023-02-13T06:15:01.348Z,100.00
2023-02-13T06:17:49.849Z,100.00
2023-02-13T06:20:38.619Z,100.00
2023-02-13T06:23:28.669Z,100.00
2023-02-13T06:26:17.147Z,100.00
2023-02-13T06:29:06.770Z,100.00
2023-02-13T06:31:55.327Z,100.00
2023-02-13T06:34:43.840Z,100.00
2023-02-13T06:37:32.338Z,100.00
2023-02-13T06:40:22.232Z,100.00
2023-02-13T06:43:10.752Z,100.00
2023-02-13T06:45:59.521Z,100.00
2023-02-13T06:48:47.983Z,100.00
2023-02-13T06:51:36.445Z,100.00
2023-02-13T06:54:34.541Z,100.00
2023-02-13T06:57:34.699Z,100.00
2023-02-13T07:00:26.117Z,100.00
2023-02-13T07:03:15.675Z,100.00
2023-02-13T07:06:04.271Z,100.00
2023-02-13T07:08:55.408Z,100.00
2023-02-13T07:11:43.916Z,100.00
2023-02-13T07:14:33.756Z,100.00
2023-02-13T07:17:22.237Z,100.00
2023-02-13T07:20:11.577Z,100.00
2023-02-13T07:23:00.860Z,100.00
2023-02-13T07:25:49.327Z,100.00
2023-02-13T07:28:37.844Z,100.00
2023-02-13T07:31:27.808Z,100.00
2023-02-13T07:34:16.602Z,98.60
2023-02-13T07:37:05.138Z,97.74
2023-02-13T07:39:53.621Z,96.54
2023-02-13T07:42:42.464Z,94.88
2023-02-13T07:45:31.367Z,94.26
2023-02-13T07:48:21.320Z,93.75
2023-02-13T07:51:10.422Z,93.44
2023-02-13T07:53:59.064Z,93.24
2023-02-13T07:56:47.796Z,92.67
2023-02-13T07:59:36.308Z,91.62
2023-02-13T08:02:25.027Z,91.74
2023-02-13T08:05:15.327Z,91.35
2023-02-13T08:08:04.312Z,90.42
2023-02-13T08:11:10.552Z,89.16
2023-02-13T08:13:59.041Z,87.33
2023-02-13T08:16:47.593Z,86.66
2023-02-13T08:19:36.075Z,86.56
2023-02-13T08:22:26.022Z,85.01
2023-02-13T08:25:14.592Z,84.90
2023-02-13T08:28:03.211Z,84.74
2023-02-13T08:30:51.734Z,84.71
2023-02-13T08:33:41.405Z,84.93
2023-02-13T08:36:29.988Z,84.04
2023-02-13T08:39:19.881Z,83.84
2023-02-13T08:42:08.409Z,82.76
2023-02-13T08:44:58.195Z,82.41
2023-02-13T08:47:47.363Z,81.50
2023-02-13T08:50:37.303Z,80.85
2023-02-13T08:53:26.077Z,80.08
2023-02-13T08:56:16.001Z,78.74
2023-02-13T08:59:04.600Z,77.24
2023-02-13T09:01:53.077Z,78.59
2023-02-13T09:04:41.629Z,78.12
2023-02-13T09:07:30.151Z,78.34
2023-02-13T09:10:19.321Z,78.51
2023-02-13T09:13:09.202Z,78.45
2023-02-13T09:16:00.406Z,78.96
2023-02-13T09:18:49.544Z,79.51
2023-02-13T09:21:38.057Z,78.59
2023-02-13T09:24:26.829Z,77.88
2023-02-13T09:27:15.643Z,78.94
2023-02-13T09:30:06.196Z,77.78
2023-02-13T09:32:55.518Z,77.44
2023-02-13T09:35:44.789Z,77.15
2023-02-13T09:38:33.223Z,76.66
2023-02-13T09:41:25.282Z,76.50
2023-02-13T09:44:34.036Z,75.42
2023-02-13T09:47:29.435Z,76.21
2023-02-13T09:50:23.261Z,75.93
2023-02-13T09:53:19.745Z,76.95
2023-02-13T09:56:12.296Z,76.30
2023-02-13T09:59:04.846Z,76.41
2023-02-13T10:01:54.224Z,77.91
2023-02-13T10:04:49.700Z,76.29
2023-02-13T10:07:41.683Z,77.04
2023-02-13T10:10:36.598Z,77.52
2023-02-13T10:13:32.358Z,76.32
2023-02-13T10:16:22.556Z,77.19
2023-02-13T10:19:20.368Z,76.90
2023-02-13T10:22:13.119Z,76.29
2023-02-13T10:25:04.536Z,75.86
2023-02-13T10:27:56.191Z,77.21
2023-02-13T10:30:50.465Z,78.21
2023-02-13T10:33:44.178Z,78.13
2023-02-13T10:36:35.668Z,78.29
2023-02-13T10:39:28.739Z,78.54
2023-02-13T10:42:25.944Z,77.94
2023-02-13T10:45:30.372Z,77.59
2023-02-13T10:48:31.251Z,77.30
2023-02-13T10:51:26.657Z,77.35
2023-02-13T10:54:23.771Z,77.57
2023-02-13T10:57:19.528Z,77.68
2023-02-13T11:00:12.750Z,78.42
2023-02-13T11:03:01.310Z,77.59
2023-02-13T11:05:51.293Z,78.46
2023-02-13T11:08:43.122Z,77.89
2023-02-13T11:11:36.035Z,78.50
2023-02-13T11:14:26.919Z,77.38
2023-02-13T11:17:18.585Z,76.78
2023-02-13T11:20:09.543Z,77.08
2023-02-13T11:22:58.878Z,76.14
2023-02-13T11:25:58.166Z,76.18
2023-02-13T11:28:50.276Z,77.14
2023-02-13T11:31:40.320Z,76.21
2023-02-13T11:34:30.867Z,75.96
2023-02-13T11:37:25.354Z,74.23
2023-02-13T11:40:30.775Z,74.32
2023-02-13T11:43:21.208Z,75.38
2023-02-13T11:46:17.015Z,74.41
2023-02-13T11:49:08.412Z,74.95
2023-02-13T11:51:58.258Z,74.01
2023-02-13T11:54:47.095Z,73.47
2023-02-13T11:57:37.082Z,73.64
2023-02-13T12:00:35.380Z,74.51
2023-02-13T12:03:30.079Z,72.60
2023-02-13T12:06:20.844Z,73.01
2023-02-13T12:09:14.059Z,72.21
2023-02-13T12:12:06.436Z,72.14
2023-02-13T12:14:57.126Z,71.82
2023-02-13T12:17:46.857Z,71.97
2023-02-13T12:20:43.779Z,72.28
2023-02-13T12:23:43.236Z,72.84
2023-02-13T12:26:34.566Z,72.64
2023-02-13T12:29:50.475Z,72.18
2023-02-13T12:32:48.651Z,72.54
2023-02-13T12:35:46.675Z,71.64
2023-02-13T12:38:52.517Z,71.07
2023-02-13T12:41:48.803Z,71.43
2023-02-13T12:45:08.134Z,71.22
2023-02-13T12:48:22.673Z,71.34
2023-02-13T12:51:30.309Z,70.84
2023-02-13T12:54:43.815Z,71.16
2023-02-13T12:57:44.280Z,71.02
2023-02-13T13:00:41.271Z,70.95
2023-02-13T13:03:37.958Z,70.48
2023-02-13T13:06:40.818Z,69.99
2023-02-13T13:09:44.619Z,69.97
2023-02-13T13:12:41.385Z,69.92
2023-02-13T13:15:35.053Z,70.69
2023-02-13T13:18:30.966Z,69.54
2023-02-13T13:21:27.419Z,69.57
2023-02-13T13:24:33.342Z,69.29
2023-02-13T13:27:26.603Z,68.96
2023-02-13T13:30:19.574Z,69.54
2023-02-13T13:33:15.095Z,69.73
2023-02-13T13:36:08.824Z,69.71
2023-02-13T13:39:01.933Z,69.23
2023-02-13T13:41:54.869Z,68.83
2023-02-13T13:45:13.383Z,68.73
2023-02-13T13:48:15.443Z,67.95
2023-02-13T13:51:04.251Z,67.64
2023-02-13T13:54:21.365Z,68.46
2023-02-13T13:57:12.516Z,68.32
2023-02-13T14:00:27.574Z,68.27
2023-02-13T14:03:35.661Z,68.33
2023-02-13T14:06:25.449Z,68.08
2023-02-13T14:09:38.600Z,67.42
2023-02-13T14:12:45.879Z,67.34
2023-02-13T14:15:51.586Z,67.25
2023-02-13T14:18:47.088Z,67.52
2023-02-13T14:21:35.849Z,67.95
2023-02-13T14:24:25.497Z,67.71
2023-02-13T14:27:22.304Z,67.86
2023-02-13T14:30:28.134Z,67.71
2023-02-13T14:33:25.679Z,67.61
2023-02-13T14:36:23.165Z,68.05
2023-02-13T14:39:22.167Z,68.40
2023-02-13T14:42:25.018Z,69.06
2023-02-13T14:45:16.949Z,68.97
2023-02-13T14:48:08.206Z,69.78
2023-02-13T14:50:58.096Z,70.19
2023-02-13T14:53:52.319Z,69.68
2023-02-13T14:56:40.835Z,70.05
2023-02-13T14:59:35.212Z,70.82
2023-02-13T15:02:25.130Z,71.13
2023-02-13T15:05:16.090Z,71.29
2023-02-13T15:08:07.992Z,72.15
2023-02-13T15:10:58.560Z,72.65
2023-02-13T15:13:47.222Z,72.97
2023-02-13T15:16:35.789Z,73.20
2023-02-13T15:19:24.927Z,73.50
2023-02-13T15:22:20.470Z,74.67
2023-02-13T15:25:10.003Z,74.99
2023-02-13T15:28:00.662Z,75.26
2023-02-13T15:30:57.048Z,74.89
2023-02-13T15:33:48.202Z,75.59
2023-02-13T15:36:42.015Z,75.49
2023-02-13T15:39:32.560Z,75.75
2023-02-13T15:42:21.191Z,75.64
2023-02-13T15:45:16.821Z,76.11
2023-02-13T15:48:05.815Z,77.13
2023-02-13T15:50:54.383Z,77.28
2023-02-13T15:53:52.157Z,77.40
2023-02-13T15:56:46.047Z,78.03
2023-02-13T15:59:37.742Z,78.15
2023-02-13T16:02:33.143Z,77.82
2023-02-13T16:05:37.528Z,78.55
2023-02-13T16:08:33.640Z,79.39
2023-02-13T16:11:26.970Z,79.43
2023-02-13T16:14:18.501Z,79.87
2023-02-13T16:17:08.285Z,80.21
2023-02-13T16:20:01.307Z,80.51
2023-02-13T16:22:52.266Z,81.36
2023-02-13T16:25:41.916Z,81.17
2023-02-13T16:28:32.743Z,81.61
2023-02-13T16:31:22.779Z,82.35
2023-02-13T16:34:25.026Z,82.40
2023-02-13T16:37:32.318Z,83.11
2023-02-13T16:40:41.720Z,83.61
2023-02-13T16:43:51.761Z,83.53
2023-02-13T16:46:41.282Z,83.93
2023-02-13T16:49:31.067Z,84.69
2023-02-13T16:52:23.270Z,85.55
2023-02-13T16:55:16.165Z,84.83
2023-02-13T16:58:05.445Z,85.50
2023-02-13T17:00:54.005Z,86.63
2023-02-13T17:03:42.528Z,86.25
2023-02-13T17:06:31.061Z,86.85
2023-02-13T17:09:19.825Z,87.63
2023-02-13T17:12:15.817Z,87.96
2023-02-13T17:15:05.063Z,88.68
2023-02-13T17:17:54.547Z,89.22
2023-02-13T17:20:44.782Z,89.03
2023-02-13T17:23:33.194Z,89.79
2023-02-13T17:26:21.662Z,89.99
2023-02-13T17:29:11.549Z,90.33
2023-02-13T17:32:00.141Z,90.32
2023-02-13T17:34:48.749Z,90.31
2023-02-13T17:37:37.338Z,91.00
2023-02-13T17:40:29.473Z,90.96
2023-02-13T17:43:21.604Z,91.77
2023-02-13T17:46:11.435Z,92.02
2023-02-13T17:48:59.930Z,92.67
2023-02-13T17:51:48.470Z,92.56
2023-02-13T17:54:37.019Z,93.54
2023-02-13T17:57:25.566Z,93.97
2023-02-13T18:00:14.826Z,94.43
2023-02-13T18:03:05.146Z,94.99
2023-02-13T18:05:53.682Z,95.18
2023-02-13T18:08:42.152Z,95.63
2023-02-13T18:11:31.129Z,96.18
2023-02-13T18:14:19.609Z,96.72
2023-02-13T18:17:08.240Z,97.22
2023-02-13T18:19:58.279Z,97.02
2023-02-13T18:22:46.883Z,98.12
2023-02-13T18:25:36.844Z,98.00
2023-02-13T18:28:25.306Z,98.21
2023-02-13T18:31:14.313Z,97.49
2023-02-13T18:34:02.859Z,98.33
2023-02-13T18:36:52.706Z,98.77
2023-02-13T18:39:41.338Z,98.88
2023-02-13T18:42:29.848Z,99.34
2023-02-13T18:45:18.576Z,99.15
2023-02-13T18:48:09.290Z,99.79
2023-02-13T18:51:00.375Z,100.00
2023-02-13T18:53:50.399Z,100.00
2023-02-13T18:56:38.893Z,100.00
2023-02-13T18:59:27.556Z,100.00
2023-02-13T19:02:16.062Z,100.00
2023-02-13T19:05:06.256Z,100.00
2023-02-13T19:07:54.739Z,100.00
2023-02-13T19:10:44.877Z,100.00
2023-02-13T19:13:34.112Z,100.00
2023-02-13T19:16:23.324Z,100.00
2023-02-13T19:19:11.820Z,100.00
2023-02-13T19:22:00.345Z,100.00
2023-02-13T19:24:48.892Z,100.00
2023-02-13T19:27:39.110Z,100.00
2023-02-13T19:30:27.665Z,100.00
2023-02-13T19:33:16.170Z,100.00
2023-02-13T19:36:08.200Z,100.00
2023-02-13T19:38:58.240Z,100.00
2023-02-13T19:41:46.799Z,100.00
2023-02-13T19:44:36.888Z,100.00
2023-02-13T19:47:25.459Z,100.00
2023-02-13T19:50:16.566Z,100.00
2023-02-13T19:53:10.639Z,100.00
2023-02-13T19:55:59.821Z,100.00
2023-02-13T19:58:48.363Z,100.00
2023-02-13T20:01:38.288Z,100.00
2023-02-13T20:04:26.939Z,100.00
2023-02-13T20:07:18.475Z,100.00
2023-02-13T20:10:09.621Z,100.00
2023-02-13T20:12:58.296Z,100.00
2023-02-13T20:15:46.816Z,100.00
2023-02-13T20:18:37.175Z,100.00
2023-02-13T20:21:26.210Z,100.00
2023-02-13T20:24:14.692Z,100.00
2023-02-13T20:27:03.179Z,100.00
2023-02-13T20:29:58.846Z,100.00
2023-02-13T20:32:54.906Z,100.00
2023-02-13T20:35:44.779Z,100.00
2023-02-13T20:38:33.285Z,100.00
2023-02-13T20:41:23.035Z,100.00
2023-02-13T20:44:13.249Z,100.00
2023-02-13T20:47:01.720Z,100.00
2023-02-13T20:49:50.252Z,100.00
2023-02-13T20:52:40.884Z,100.00
2023-02-13T20:55:29.400Z,100.00
2023-02-13T20:58:17.976Z,100.00
2023-02-13T21:01:12.255Z,100.00
2023-02-13T21:04:01.343Z,100.00
2023-02-13T21:06:49.938Z,100.00
2023-02-13T21:09:39.864Z,100.00
2023-02-13T21:12:28.376Z,100.00
2023-02-13T21:15:18.793Z,100.00
2023-02-13T21:18:07.455Z,100.00
2023-02-13T21:20:57.412Z,100.00
2023-02-13T21:23:46.452Z,100.00
2023-02-13T21:26:36.826Z,100.00
2023-02-13T21:29:25.371Z,100.00
2023-02-13T21:32:14.061Z,100.00
2023-02-13T21:35:02.588Z,100.00
2023-02-13T21:37:51.060Z,100.00
2023-02-13T21:40:40.711Z,100.00
2023-02-13T21:43:30.541Z,100.00
2023-02-13T21:46:21.121Z,100.00
2023-02-13T21:49:12.934Z,100.00
2023-02-13T21:52:01.427Z,100.00
2023-02-13T21:54:49.940Z,100.00
2023-02-13T21:57:38.484Z,100.00
2023-02-13T22:00:28.335Z,100.00
2023-02-13T22:03:16.816Z,100.00
2023-02-13T22:06:05.531Z,100.00
2023-02-13T22:08:57.361Z,100.00
2023-02-13T22:11:45.863Z,100.00
2023-02-13T22:14:34.313Z,100.00
2023-02-13T22:17:24.155Z,100.00
2023-02-13T22:20:13.340Z,100.00
2023-02-13T22:23:01.838Z,100.00
2023-02-13T22:25:50.583Z,100.00
2023-02-13T22:28:39.072Z,100.00
2023-02-13T22:31:27.783Z,100.00
2023-02-13T22:34:17.644Z,100.00
2023-02-13T22:37:06.374Z,100.00
2023-02-13T22:39:54.834Z,100.00
2023-02-13T22:42:43.339Z,100.00
2023-02-13T22:45:32.296Z,100.00
2023-02-13T22:48:20.727Z,100.00
2023-02-13T22:51:12.155Z,100.00
2023-02-13T22:54:01.124Z,100.00
2023-02-13T22:56:49.718Z,100.00
2023-02-13T22:59:40.143Z,100.00
2023-02-13T23:02:28.826Z,100.00
2023-02-13T23:05:17.750Z,100.00
2023-02-13T23:08:07.681Z,100.00
2023-02-13T23:11:13.606Z,100.00
2023-02-13T23:14:02.272Z,100.00
2023-02-13T23:17:08.403Z,100.00
2023-02-13T23:19:56.878Z,100.00
2023-02-13T23:22:45.374Z,100.00
2023-02-13T23:25:35.603Z,100.00
2023-02-13T23:28:24.071Z,100.00
2023-02-13T23:31:12.921Z,100.00
2023-02-13T23:34:01.529Z,100.00
2023-02-13T23:36:50.363Z,100.00
2023-02-13T23:39:38.811Z,100.00
2023-02-13T23:42:28.663Z,100.00
2023-02-13T23:45:17.281Z,100.00
2023-02-13T23:48:06.018Z,100.00
2023-02-13T23:50:54.454Z,100.00
2023-02-13T23:53:42.868Z,100.00
2023-02-13T23:56:31.582Z,100.00
2023-02-13T23:59:22.428Z,100.00
